createdAt,value
2019-01-03T00:03:02.375Z,3.45
2019-01-03T00:06:04.909Z,2.98
2019-01-03T00:09:07.690Z,2.42
2019-01-03T00:12:10.474Z,2.50
2019-01-03T00:15:13.012Z,3.55
2019-01-03T00:18:15.532Z,2.42
2019-01-03T00:21:18.311Z,2.60
2019-01-03T00:24:20.840Z,2.50
2019-01-03T00:27:23.624Z,2.45
2019-01-03T00:30:27.446Z,2.92
2019-01-03T00:33:30.215Z,3.12
2019-01-03T00:36:32.998Z,2.65
2019-01-03T00:39:31.947Z,3.20
2019-01-03T00:42:34.471Z,2.40
2019-01-03T00:45:37.255Z,2.92
2019-01-03T00:48:40.048Z,2.90
2019-01-03T00:51:42.823Z,3.45
2019-01-03T00:54:46.377Z,2.60
2019-01-03T00:57:49.675Z,2.55
2019-01-03T01:00:51.950Z,2.90
2019-01-03T01:03:54.984Z,2.67
2019-01-03T01:06:53.913Z,1.92
2019-01-03T01:09:56.713Z,3.75
2019-01-03T01:12:59.240Z,2.60
2019-01-03T01:16:02.024Z,2.70
2019-01-03T01:19:07.880Z,2.75
2019-01-03T01:22:10.664Z,2.40
2019-01-03T01:25:13.457Z,2.40
2019-01-03T01:28:16.231Z,2.45
2019-01-03T01:31:19.277Z,2.83
2019-01-03T01:34:21.797Z,2.80
2019-01-03T01:37:24.335Z,2.90
2019-01-03T01:40:26.861Z,2.72
2019-01-03T01:43:29.642Z,2.47
2019-01-03T01:46:32.683Z,2.20
2019-01-03T01:49:35.208Z,3.22
2019-01-03T01:52:37.996Z,2.30
2019-01-03T01:55:40.780Z,2.10
2019-01-03T01:58:44.581Z,2.10
2019-01-03T02:01:46.855Z,2.67
2019-01-03T02:04:49.638Z,2.17
2019-01-03T02:07:52.680Z,2.25
2019-01-03T02:10:55.467Z,2.27
2019-01-03T02:13:57.994Z,3.15
2019-01-03T02:17:00.264Z,2.20
2019-01-03T02:20:03.058Z,2.40
2019-01-03T02:23:06.089Z,2.60
2019-01-03T02:26:08.617Z,2.70
2019-01-03T02:29:11.146Z,2.60
2019-01-03T02:32:13.679Z,2.60
2019-01-03T02:35:12.592Z,2.30
2019-01-03T02:38:15.145Z,2.22
2019-01-03T02:41:13.094Z,2.47
2019-01-03T02:44:16.107Z,2.30
2019-01-03T02:47:18.634Z,2.72
2019-01-03T02:50:21.420Z,2.20
2019-01-03T02:53:24.455Z,2.58
2019-01-03T02:56:26.988Z,2.22
2019-01-03T02:59:30.025Z,2.47
2019-01-03T03:02:32.827Z,2.08
2019-01-03T03:05:35.846Z,1.92
2019-01-03T03:08:38.377Z,1.90
2019-01-03T03:11:38.312Z,2.10
2019-01-03T03:14:41.898Z,2.40
2019-01-03T03:17:44.424Z,1.95
2019-01-03T03:20:47.207Z,2.30
2019-01-03T03:23:49.480Z,2.70
2019-01-03T03:26:52.264Z,3.10
2019-01-03T03:29:55.047Z,1.87
2019-01-03T03:32:57.831Z,2.17
2019-01-03T03:36:01.639Z,2.22
2019-01-03T03:39:05.192Z,1.92
2019-01-03T03:42:07.721Z,2.02
2019-01-03T03:45:10.247Z,1.90
2019-01-03T03:48:13.031Z,2.65
2019-01-03T03:51:15.561Z,2.30
2019-01-03T03:54:18.090Z,2.12
2019-01-03T03:57:20.618Z,2.20
2019-01-03T04:00:24.425Z,2.02
2019-01-03T04:03:27.462Z,2.72
2019-01-03T04:06:30.254Z,2.17
2019-01-03T04:09:33.033Z,2.20
2019-01-03T04:12:37.872Z,3.02
2019-01-03T04:15:40.646Z,2.55
2019-01-03T04:18:43.177Z,1.90
2019-01-03T04:21:41.864Z,1.75
2019-01-03T04:24:45.177Z,2.05
2019-01-03T04:27:47.943Z,2.45
2019-01-03T04:30:50.728Z,2.27
2019-01-03T04:33:53.259Z,2.30
2019-01-03T04:36:55.789Z,2.67
2019-01-03T04:39:58.823Z,1.80
2019-01-03T04:43:01.617Z,2.30
2019-01-03T04:46:04.137Z,2.75
2019-01-03T04:49:07.179Z,1.85
2019-01-03T04:52:09.958Z,1.90
2019-01-03T04:55:13.257Z,1.92
2019-01-03T04:58:16.304Z,2.15
2019-01-03T05:01:19.085Z,2.42
2019-01-03T05:04:21.607Z,2.30
2019-01-03T05:07:24.139Z,2.77
2019-01-03T05:10:26.922Z,2.12
2019-01-03T05:13:29.705Z,2.33
2019-01-03T05:16:32.231Z,3.05
2019-01-03T05:19:34.759Z,1.90
2019-01-03T05:22:37.289Z,2.45
2019-01-03T05:25:39.837Z,2.27
2019-01-03T05:28:42.342Z,2.20
2019-01-03T05:31:45.165Z,2.15
2019-01-03T05:34:43.884Z,3.17
2019-01-03T05:37:42.825Z,2.08
2019-01-03T05:40:45.799Z,2.02
2019-01-03T05:43:48.335Z,2.55
2019-01-03T05:46:51.367Z,2.92
2019-01-03T05:49:54.936Z,2.75
2019-01-03T05:52:57.709Z,2.37
2019-01-03T05:56:00.488Z,1.80
2019-01-03T05:59:04.297Z,3.30
2019-01-03T06:02:06.826Z,2.77
2019-01-03T06:05:09.606Z,2.17
2019-01-03T06:08:12.392Z,2.95
2019-01-03T06:11:14.921Z,2.52
2019-01-03T06:14:17.447Z,2.10
2019-01-03T06:17:20.229Z,2.75
2019-01-03T06:20:23.275Z,1.95
2019-01-03T06:23:25.803Z,1.90
2019-01-03T06:26:24.899Z,2.25
2019-01-03T06:29:27.527Z,1.90
2019-01-03T06:32:30.567Z,2.70
2019-01-03T06:35:33.351Z,2.60
2019-01-03T06:38:35.880Z,2.67
2019-01-03T06:41:38.408Z,2.30
2019-01-03T06:44:41.959Z,1.77
2019-01-03T06:47:44.743Z,2.30
2019-01-03T06:50:47.527Z,2.00
2019-01-03T06:53:44.588Z,2.08
2019-01-03T06:56:47.462Z,1.70
2019-01-03T06:59:50.507Z,1.92
2019-01-03T07:02:53.030Z,2.58
2019-01-03T07:05:55.560Z,1.77
2019-01-03T07:08:58.088Z,2.37
2019-01-03T07:12:00.873Z,2.22
2019-01-03T07:15:03.656Z,2.02
2019-01-03T07:18:06.442Z,2.00
2019-01-03T07:21:08.971Z,2.60
2019-01-03T07:24:11.494Z,2.30
2019-01-03T07:27:14.281Z,2.17
2019-01-03T07:30:16.810Z,2.27
2019-01-03T07:33:19.851Z,1.85
2019-01-03T07:36:22.378Z,2.05
2019-01-03T07:39:24.909Z,2.08
2019-01-03T07:42:27.691Z,2.00
2019-01-03T07:45:30.470Z,1.92
2019-01-03T07:48:33.000Z,2.10
2019-01-03T07:51:35.784Z,2.40
2019-01-03T07:54:38.315Z,2.27
2019-01-03T07:57:41.097Z,2.90
2019-01-03T08:00:43.883Z,2.37
2019-01-03T08:03:46.151Z,2.70
2019-01-03T08:06:48.679Z,1.87
2019-01-03T08:09:51.977Z,2.35
2019-01-03T08:12:55.018Z,2.45
2019-01-03T08:15:57.801Z,2.85
2019-01-03T08:19:00.583Z,2.45
2019-01-03T08:22:03.380Z,2.25
2019-01-03T08:25:05.898Z,2.08
2019-01-03T08:28:08.680Z,1.80
2019-01-03T08:31:13.256Z,2.70
2019-01-03T08:34:16.298Z,1.95
2019-01-03T08:37:19.343Z,2.33
2019-01-03T08:40:23.400Z,2.40
2019-01-03T08:43:27.158Z,2.20
2019-01-03T08:46:28.711Z,2.05
2019-01-03T08:49:31.500Z,1.85
2019-01-03T08:52:34.543Z,3.45
2019-01-03T08:55:37.070Z,2.72
2019-01-03T08:58:39.594Z,1.77
2019-01-03T09:01:43.146Z,2.85
2019-01-03T09:04:47.466Z,3.15
2019-01-03T09:07:50.250Z,2.70
2019-01-03T09:10:53.036Z,3.50
2019-01-03T09:13:55.572Z,2.62
2019-01-03T09:16:58.602Z,3.17
2019-01-03T09:20:01.392Z,2.83
2019-01-03T09:23:03.925Z,2.33
2019-01-03T09:26:07.978Z,2.50
2019-01-03T09:29:11.785Z,2.80
2019-01-03T09:32:14.315Z,2.98
2019-01-03T09:35:16.852Z,2.60
2019-01-03T09:38:19.624Z,2.67
2019-01-03T09:41:23.177Z,3.02
2019-01-03T09:44:26.491Z,2.98
2019-01-03T09:47:29.004Z,2.98
2019-01-03T09:50:27.719Z,2.67
2019-01-03T09:53:31.237Z,2.58
2019-01-03T09:59:51.144Z,2.30
2019-01-03T10:02:53.931Z,2.37
2019-01-03T10:06:01.100Z,2.42
2019-01-03T10:09:04.886Z,2.37
2019-01-03T10:12:05.095Z,2.30
2019-01-03T10:15:08.137Z,2.60
2019-01-03T10:18:07.364Z,2.02
2019-01-03T10:21:10.891Z,2.65
2019-01-03T10:24:14.189Z,2.60
2019-01-03T10:27:16.714Z,2.58
2019-01-03T10:30:20.264Z,2.20
2019-01-03T10:33:23.311Z,2.05
2019-01-03T10:36:27.481Z,2.10
2019-01-03T10:39:28.871Z,2.12
2019-01-03T10:42:31.657Z,2.08
2019-01-03T10:48:52.843Z,2.35
2019-01-03T10:51:55.624Z,2.62
2019-01-03T10:54:58.408Z,2.02
2019-01-03T10:58:01.195Z,2.67
2019-01-03T11:01:03.718Z,2.50
2019-01-03T11:04:07.271Z,3.40
2019-01-03T11:07:10.058Z,3.15
2019-01-03T11:10:12.843Z,2.67
2019-01-03T11:13:15.629Z,2.70
2019-01-03T11:16:18.153Z,2.02
2019-01-03T11:19:21.199Z,2.58
2019-01-03T11:22:23.980Z,2.90
2019-01-03T11:25:26.773Z,1.92
2019-01-03T11:28:30.574Z,2.98
2019-01-03T11:31:33.886Z,3.10
2019-01-03T11:34:37.961Z,2.77
2019-01-03T11:37:41.735Z,3.00
2019-01-03T11:40:45.055Z,3.10
2019-01-03T11:43:48.586Z,2.67
2019-01-03T11:46:51.879Z,2.60
2019-01-03T11:49:55.434Z,3.15
2019-01-03T11:52:58.995Z,3.02
2019-01-03T11:56:02.543Z,2.40
2019-01-03T11:59:05.326Z,2.77
2019-01-03T12:02:08.871Z,2.65
2019-01-03T12:05:08.078Z,2.27
2019-01-03T12:08:10.855Z,2.30
2019-01-03T12:11:13.645Z,2.27
2019-01-03T12:14:16.424Z,2.37
2019-01-03T12:17:19.211Z,3.20
2019-01-03T12:20:22.519Z,2.45
2019-01-03T12:23:25.821Z,2.00
2019-01-03T12:26:29.648Z,2.12
2019-01-03T12:29:32.391Z,2.25
2019-01-03T12:32:36.200Z,2.87
2019-01-03T12:35:35.918Z,2.87
2019-01-03T12:38:38.441Z,2.35
2019-01-03T12:41:41.482Z,3.22
2019-01-03T12:44:45.289Z,2.17
2019-01-03T12:47:47.816Z,2.37
2019-01-03T12:50:51.373Z,2.92
2019-01-03T12:53:54.410Z,1.77
2019-01-03T12:56:57.448Z,1.67
2019-01-03T13:00:00.495Z,1.90
2019-01-03T13:03:03.274Z,2.45
2019-01-03T13:06:06.312Z,2.35
2019-01-03T13:09:09.359Z,2.25
2019-01-03T13:12:12.904Z,2.17
2019-01-03T13:15:15.956Z,2.15
2019-01-03T13:18:18.728Z,1.80
2019-01-03T13:21:21.510Z,1.70
2019-01-03T13:24:24.568Z,2.12
2019-01-03T13:27:27.336Z,1.62
2019-01-03T13:30:29.866Z,1.72
2019-01-03T13:33:32.648Z,1.77
2019-01-03T13:36:35.434Z,2.20
2019-01-03T13:39:33.640Z,2.00
2019-01-03T13:42:36.394Z,1.75
2019-01-03T13:45:40.198Z,1.22
2019-01-03T13:48:42.473Z,1.67
2019-01-03T13:51:48.598Z,1.40
2019-01-03T13:54:52.655Z,1.67
2019-01-03T13:57:56.469Z,1.67
2019-01-03T14:01:00.529Z,1.40
2019-01-03T14:04:04.598Z,2.02
2019-01-03T14:07:08.664Z,1.82
2019-01-03T14:10:18.367Z,1.75
2019-01-03T14:13:23.960Z,1.50
2019-01-03T14:16:27.771Z,1.72
2019-01-03T14:19:40.019Z,1.45
2019-01-03T14:22:44.084Z,1.80
2019-01-03T14:25:47.638Z,1.42
2019-01-03T14:28:54.520Z,1.62
2019-01-03T14:31:58.330Z,1.87
2019-01-03T14:35:10.329Z,1.20
2019-01-03T14:38:14.398Z,1.47
2019-01-03T14:41:23.162Z,2.02
2019-01-03T14:44:25.342Z,1.57
2019-01-03T14:47:31.517Z,1.60
2019-01-03T14:50:33.465Z,1.72
2019-01-03T14:53:37.428Z,1.60
2019-01-03T14:56:52.339Z,1.80
2019-01-03T15:00:06.907Z,1.70
2019-01-03T15:03:12.502Z,1.80
2019-01-03T15:06:16.569Z,1.98
2019-01-03T15:09:20.373Z,1.55
2019-01-03T15:12:21.973Z,1.45
2019-01-03T15:15:26.712Z,1.37
2019-01-03T15:18:33.843Z,1.22
2019-01-03T15:21:39.963Z,1.70
2019-01-03T15:24:52.215Z,1.25
2019-01-03T15:27:57.304Z,1.72
2019-01-03T15:31:01.372Z,1.72
2019-01-03T15:34:01.257Z,1.40
2019-01-03T15:37:05.400Z,1.85
2019-01-03T15:40:09.212Z,1.80
2019-01-03T15:43:20.697Z,1.80
2019-01-03T15:46:27.569Z,1.60
2019-01-03T15:49:31.632Z,1.55
2019-01-03T15:52:38.773Z,1.72
2019-01-03T15:55:42.832Z,1.95
2019-01-03T15:58:59.702Z,1.37
2019-01-03T16:02:04.027Z,1.57
2019-01-03T16:05:07.317Z,2.00
2019-01-03T16:08:13.174Z,1.80
2019-01-03T16:11:26.194Z,1.60
2019-01-03T16:14:39.986Z,1.30
2019-01-03T16:17:43.797Z,1.37
2019-01-03T16:20:48.900Z,1.67
2019-01-03T16:24:04.605Z,1.85
2019-01-03T16:27:13.940Z,1.75
2019-01-03T16:30:21.048Z,1.50
2019-01-03T16:33:36.025Z,1.75
2019-01-03T16:36:57.158Z,1.32
2019-01-03T16:40:09.082Z,1.82
2019-01-03T16:43:18.013Z,2.30
2019-01-03T16:46:21.818Z,2.35
2019-01-03T16:49:29.971Z,2.47
2019-01-03T16:52:34.806Z,2.08
2019-01-03T16:56:36.974Z,2.58
2019-01-03T16:59:42.070Z,3.77
2019-01-03T17:02:45.879Z,3.62
2019-01-03T17:06:02.082Z,6.08
2019-01-03T17:09:12.441Z,4.40
2019-01-03T17:12:31.230Z,3.60
2019-01-03T17:19:26.788Z,4.00
2019-01-03T17:26:10.682Z,2.60
2019-01-03T17:29:14.096Z,2.08
2019-01-03T17:35:44.763Z,3.67
2019-01-03T17:39:00.601Z,3.10
2019-01-03T17:42:04.412Z,2.25
2019-01-03T17:45:09.752Z,2.55
2019-01-03T17:48:13.816Z,2.27
2019-01-03T17:51:17.626Z,3.60
2019-01-03T17:54:21.436Z,2.55
2019-01-03T17:57:25.753Z,2.67
2019-01-03T18:00:29.306Z,2.55
2019-01-03T18:03:32.328Z,3.90
2019-01-03T18:06:36.415Z,2.62
2019-01-03T18:09:40.476Z,3.87
2019-01-03T18:12:44.014Z,2.58
2019-01-03T18:15:48.846Z,2.27
2019-01-03T18:18:54.712Z,3.00
2019-01-03T18:21:57.996Z,3.25
2019-01-03T18:25:01.800Z,2.92
2019-01-03T18:28:01.006Z,12.65
2019-01-03T18:31:03.530Z,19.02
2019-01-03T18:34:06.575Z,6.83
2019-01-03T18:37:09.095Z,4.72
2019-01-03T18:40:11.625Z,5.22
2019-01-03T18:43:14.152Z,3.42
2019-01-03T18:46:17.705Z,3.05
2019-01-03T18:49:22.536Z,4.03
2019-01-03T18:52:25.070Z,3.47
2019-01-03T18:55:28.624Z,3.83
2019-01-03T18:58:32.431Z,3.85
2019-01-03T19:01:37.007Z,3.35
2019-01-03T19:04:40.550Z,3.10
2019-01-03T19:07:43.847Z,3.83
2019-01-03T19:10:46.378Z,4.15
2019-01-03T19:13:49.160Z,3.58
2019-01-03T19:16:51.688Z,3.75
2019-01-03T19:19:54.481Z,3.40
2019-01-03T19:22:57.514Z,4.30
2019-01-03T19:26:00.294Z,3.05
2019-01-03T19:29:03.081Z,2.95
2019-01-03T19:32:05.862Z,2.80
2019-01-03T19:35:08.648Z,3.42
2019-01-03T19:38:11.691Z,4.30
2019-01-03T19:41:17.544Z,3.72
2019-01-03T19:44:20.839Z,4.08
2019-01-03T19:47:20.806Z,3.15
2019-01-03T19:50:23.083Z,3.47
2019-01-03T19:53:26.636Z,3.10
2019-01-03T19:56:28.905Z,4.50
2019-01-03T19:59:28.103Z,3.77
2019-01-03T20:02:30.376Z,3.85
2019-01-03T20:05:33.161Z,3.72
2019-01-03T20:08:37.222Z,3.65
2019-01-03T20:11:42.825Z,4.17
2019-01-03T20:14:46.891Z,4.25
2019-01-03T20:17:43.880Z,3.55
2019-01-03T20:20:46.567Z,4.62
2019-01-03T20:23:50.637Z,3.87
2019-01-03T20:26:53.419Z,3.75
2019-01-03T20:29:57.486Z,5.00
2019-01-03T20:33:00.523Z,4.35
2019-01-03T20:36:03.308Z,5.40
2019-01-03T20:39:06.093Z,4.30
2019-01-03T20:42:08.874Z,5.50
2019-01-03T20:45:12.685Z,4.37
2019-01-03T20:48:15.465Z,4.80
2019-01-03T20:51:18.250Z,3.75
2019-01-03T20:54:21.286Z,4.00
2019-01-03T20:57:23.835Z,6.62
2019-01-03T21:00:26.606Z,6.00
2019-01-03T21:06:46.760Z,4.85
2019-01-03T21:09:49.802Z,4.60
2019-01-03T21:12:52.851Z,3.45
2019-01-03T21:15:55.369Z,3.70
2019-01-03T21:18:59.188Z,4.55
2019-01-03T21:22:01.450Z,3.80
2019-01-03T21:25:01.166Z,4.20
2019-01-03T21:28:00.066Z,3.95
2019-01-03T21:31:03.659Z,3.92
2019-01-03T21:34:06.186Z,5.03
2019-01-03T21:37:09.227Z,3.98
2019-01-03T21:40:12.019Z,4.22
2019-01-03T21:43:15.827Z,3.52
2019-01-03T21:46:19.407Z,4.05
2019-01-03T21:49:22.926Z,3.47
2019-01-03T21:52:25.959Z,4.00
2019-01-03T21:55:28.492Z,4.03
2019-01-03T21:58:31.277Z,4.03
2019-01-03T22:01:34.577Z,3.25
2019-01-03T22:04:33.772Z,3.70
2019-01-03T22:07:37.577Z,3.95
2019-01-03T22:10:41.387Z,4.67
2019-01-03T22:13:45.194Z,3.52
2019-01-03T22:16:44.112Z,3.35
2019-01-03T22:19:47.177Z,6.33
2019-01-03T22:22:50.215Z,3.65
2019-01-03T22:25:53.010Z,3.22
2019-01-03T22:28:56.041Z,6.78
2019-01-03T22:31:59.083Z,7.20
2019-01-03T22:35:01.396Z,5.15
2019-01-03T22:38:04.653Z,5.72
2019-01-03T22:41:07.691Z,2.98
2019-01-03T22:44:11.495Z,3.50
2019-01-03T22:47:14.538Z,2.90
2019-01-03T22:50:17.688Z,2.98
2019-01-03T22:53:21.385Z,3.17
2019-01-03T22:56:25.706Z,3.42
2019-01-03T22:59:28.232Z,4.42
2019-01-03T23:02:32.303Z,6.47
2019-01-03T23:05:36.361Z,3.87
2019-01-03T23:08:38.891Z,4.03
2019-01-03T23:11:41.673Z,8.05
2019-01-03T23:14:44.457Z,4.12
2019-01-03T23:17:47.495Z,3.08
2019-01-03T23:20:49.772Z,3.20
2019-01-03T23:23:52.819Z,3.90
2019-01-03T23:26:55.591Z,3.70
2019-01-03T23:29:58.126Z,7.95
2019-01-03T23:33:01.674Z,6.53
2019-01-03T23:36:04.457Z,4.78
2019-01-03T23:39:07.499Z,4.50
2019-01-03T23:42:11.817Z,7.75
2019-01-03T23:45:27.148Z,4.60
2019-01-03T23:48:30.702Z,4.55
2019-01-03T23:51:33.231Z,5.62
2019-01-03T23:54:37.037Z,4.75
2019-01-03T23:57:40.072Z,4.28
